sensor_id;sensor_type;location;lat;lon;timestamp;P1;durP1;ratioP1;P2;durP2;ratioP2
78799;SDS011;68148;55.328;86.106;2024-01-06T00:00:21;10.50;;;3.00;;
78799;SDS011;68148;55.328;86.106;2024-01-06T00:02:47;9.25;;;3.00;;
78799;SDS011;68148;55.328;86.106;2024-01-06T00:05:23;11.45;;;3.28;;
78799;SDS011;68148;55.328;86.106;2024-01-06T00:07:49;10.77;;;4.15;;
78799;SDS011;68148;55.328;86.106;2024-01-06T00:10:14;12.15;;;4.15;;
78799;SDS011;68148;55.328;86.106;2024-01-06T00:12:40;8.48;;;4.07;;
78799;SDS011;68148;55.328;86.106;2024-01-06T00:15:08;7.47;;;3.15;;
78799;SDS011;68148;55.328;86.106;2024-01-06T00:17:34;8.63;;;3.70;;
78799;SDS011;68148;55.328;86.106;2024-01-06T00:19:59;8.07;;;3.42;;
78799;SDS011;68148;55.328;86.106;2024-01-06T00:22:25;8.65;;;3.53;;
78799;SDS011;68148;55.328;86.106;2024-01-06T00:24:51;13.93;;;4.38;;
78799;SDS011;68148;55.328;86.106;2024-01-06T00:27:17;16.48;;;6.40;;
78799;SDS011;68148;55.328;86.106;2024-01-06T00:29:43;14.60;;;4.78;;
78799;SDS011;68148;55.328;86.106;2024-01-06T00:32:09;9.60;;;3.60;;
78799;SDS011;68148;55.328;86.106;2024-01-06T00:34:35;14.73;;;4.60;;
78799;SDS011;68148;55.328;86.106;2024-01-06T00:37:00;14.85;;;4.95;;
78799;SDS011;68148;55.328;86.106;2024-01-06T00:39:26;14.15;;;5.30;;
78799;SDS011;68148;55.328;86.106;2024-01-06T00:41:53;15.45;;;5.32;;
78799;SDS011;68148;55.328;86.106;2024-01-06T00:44:18;19.95;;;5.63;;
78799;SDS011;68148;55.328;86.106;2024-01-06T00:46:44;18.35;;;5.65;;
78799;SDS011;68148;55.328;86.106;2024-01-06T00:49:10;9.35;;;4.10;;
78799;SDS011;68148;55.328;86.106;2024-01-06T00:51:36;11.32;;;5.07;;
78799;SDS011;68148;55.328;86.106;2024-01-06T00:54:02;9.25;;;4.25;;
78799;SDS011;68148;55.328;86.106;2024-01-06T00:56:28;12.32;;;4.07;;
78799;SDS011;68148;55.328;86.106;2024-01-06T00:58:54;10.93;;;4.05;;
78799;SDS011;68148;55.328;86.106;2024-01-06T01:01:20;8.27;;;3.97;;
78799;SDS011;68148;55.328;86.106;2024-01-06T01:03:46;10.27;;;4.72;;
78799;SDS011;68148;55.328;86.106;2024-01-06T01:06:11;10.57;;;4.18;;
78799;SDS011;68148;55.328;86.106;2024-01-06T01:08:38;8.43;;;4.40;;
78799;SDS011;68148;55.328;86.106;2024-01-06T01:11:04;13.77;;;5.10;;
78799;SDS011;68148;55.328;86.106;2024-01-06T01:13:30;12.73;;;4.47;;
78799;SDS011;68148;55.328;86.106;2024-01-06T01:15:56;8.27;;;3.60;;
78799;SDS011;68148;55.328;86.106;2024-01-06T01:18:22;15.00;;;4.63;;
78799;SDS011;68148;55.328;86.106;2024-01-06T01:20:48;8.77;;;4.05;;
78799;SDS011;68148;55.328;86.106;2024-01-06T01:23:13;11.20;;;4.43;;
78799;SDS011;68148;55.328;86.106;2024-01-06T01:25:39;7.00;;;3.35;;
78799;SDS011;68148;55.328;86.106;2024-01-06T01:28:06;12.73;;;4.60;;
78799;SDS011;68148;55.328;86.106;2024-01-06T01:30:32;8.35;;;3.70;;
78799;SDS011;68148;55.328;86.106;2024-01-06T01:32:58;11.73;;;3.90;;
78799;SDS011;68148;55.328;86.106;2024-01-06T01:35:24;15.10;;;4.70;;
78799;SDS011;68148;55.328;86.106;2024-01-06T01:37:50;5.53;;;2.47;;
78799;SDS011;68148;55.328;86.106;2024-01-06T01:40:16;12.15;;;4.85;;
78799;SDS011;68148;55.328;86.106;2024-01-06T01:42:45;11.90;;;4.13;;
78799;SDS011;68148;55.328;86.106;2024-01-06T01:45:13;8.50;;;4.47;;
78799;SDS011;68148;55.328;86.106;2024-01-06T01:47:40;9.10;;;3.85;;
78799;SDS011;68148;55.328;86.106;2024-01-06T01:50:06;6.53;;;3.35;;
78799;SDS011;68148;55.328;86.106;2024-01-06T01:52:41;13.65;;;4.85;;
78799;SDS011;68148;55.328;86.106;2024-01-06T01:55:08;13.20;;;3.60;;
78799;SDS011;68148;55.328;86.106;2024-01-06T01:57:33;7.93;;;3.45;;
78799;SDS011;68148;55.328;86.106;2024-01-06T02:00:00;7.88;;;3.78;;
78799;SDS011;68148;55.328;86.106;2024-01-06T02:02:26;9.13;;;3.83;;
78799;SDS011;68148;55.328;86.106;2024-01-06T02:04:54;13.63;;;4.28;;
78799;SDS011;68148;55.328;86.106;2024-01-06T02:07:32;8.10;;;3.58;;
78799;SDS011;68148;55.328;86.106;2024-01-06T02:09:58;9.32;;;3.67;;
78799;SDS011;68148;55.328;86.106;2024-01-06T02:12:24;8.68;;;4.28;;
78799;SDS011;68148;55.328;86.106;2024-01-06T02:14:50;10.95;;;3.92;;
78799;SDS011;68148;55.328;86.106;2024-01-06T02:17:16;10.82;;;3.55;;
78799;SDS011;68148;55.328;86.106;2024-01-06T02:19:41;8.30;;;3.53;;
78799;SDS011;68148;55.328;86.106;2024-01-06T02:22:07;10.73;;;3.78;;
78799;SDS011;68148;55.328;86.106;2024-01-06T02:24:33;9.00;;;3.33;;
78799;SDS011;68148;55.328;86.106;2024-01-06T02:26:59;13.05;;;5.45;;
78799;SDS011;68148;55.328;86.106;2024-01-06T02:29:27;9.68;;;4.25;;
78799;SDS011;68148;55.328;86.106;2024-01-06T02:31:53;8.18;;;3.45;;
78799;SDS011;68148;55.328;86.106;2024-01-06T02:34:18;10.57;;;3.88;;
78799;SDS011;68148;55.328;86.106;2024-01-06T02:36:44;15.48;;;4.97;;
78799;SDS011;68148;55.328;86.106;2024-01-06T02:39:10;13.10;;;3.75;;
78799;SDS011;68148;55.328;86.106;2024-01-06T02:41:36;7.65;;;3.17;;
78799;SDS011;68148;55.328;86.106;2024-01-06T02:44:02;13.98;;;4.15;;
78799;SDS011;68148;55.328;86.106;2024-01-06T02:46:29;12.88;;;4.55;;
78799;SDS011;68148;55.328;86.106;2024-01-06T02:48:54;13.95;;;5.13;;
78799;SDS011;68148;55.328;86.106;2024-01-06T02:51:20;12.15;;;4.25;;
78799;SDS011;68148;55.328;86.106;2024-01-06T02:53:46;12.27;;;3.88;;
78799;SDS011;68148;55.328;86.106;2024-01-06T02:56:12;11.30;;;3.28;;
78799;SDS011;68148;55.328;86.106;2024-01-06T02:58:38;11.18;;;4.10;;
78799;SDS011;68148;55.328;86.106;2024-01-06T03:01:04;9.82;;;3.78;;
78799;SDS011;68148;55.328;86.106;2024-01-06T03:03:30;14.80;;;4.80;;
78799;SDS011;68148;55.328;86.106;2024-01-06T03:05:56;6.57;;;2.50;;
78799;SDS011;68148;55.328;86.106;2024-01-06T03:08:22;11.32;;;4.07;;
78799;SDS011;68148;55.328;86.106;2024-01-06T03:10:49;7.97;;;3.13;;
78799;SDS011;68148;55.328;86.106;2024-01-06T03:13:14;14.10;;;4.55;;
78799;SDS011;68148;55.328;86.106;2024-01-06T03:15:40;10.48;;;3.75;;
78799;SDS011;68148;55.328;86.106;2024-01-06T03:18:06;8.38;;;3.00;;
78799;SDS011;68148;55.328;86.106;2024-01-06T03:20:32;10.55;;;3.90;;
78799;SDS011;68148;55.328;86.106;2024-01-06T03:22:57;10.10;;;3.50;;
78799;SDS011;68148;55.328;86.106;2024-01-06T03:25:23;12.30;;;3.33;;
78799;SDS011;68148;55.328;86.106;2024-01-06T03:27:49;9.02;;;3.47;;
78799;SDS011;68148;55.328;86.106;2024-01-06T03:30:15;6.97;;;3.25;;
78799;SDS011;68148;55.328;86.106;2024-01-06T03:32:41;13.07;;;4.15;;
78799;SDS011;68148;55.328;86.106;2024-01-06T03:35:06;10.43;;;3.38;;
78799;SDS011;68148;55.328;86.106;2024-01-06T03:37:32;10.55;;;3.50;;
78799;SDS011;68148;55.328;86.106;2024-01-06T03:40:00;7.30;;;3.40;;
78799;SDS011;68148;55.328;86.106;2024-01-06T03:42:26;6.95;;;3.53;;
78799;SDS011;68148;55.328;86.106;2024-01-06T03:44:52;10.25;;;4.22;;
78799;SDS011;68148;55.328;86.106;2024-01-06T03:47:18;12.05;;;3.53;;
78799;SDS011;68148;55.328;86.106;2024-01-06T03:49:48;8.38;;;3.33;;
78799;SDS011;68148;55.328;86.106;2024-01-06T03:52:13;8.63;;;3.47;;
78799;SDS011;68148;55.328;86.106;2024-01-06T03:54:39;12.82;;;4.85;;
78799;SDS011;68148;55.328;86.106;2024-01-06T03:57:05;8.85;;;3.38;;
78799;SDS011;68148;55.328;86.106;2024-01-06T03:59:33;8.63;;;3.42;;
78799;SDS011;68148;55.328;86.106;2024-01-06T04:01:58;12.63;;;4.15;;
78799;SDS011;68148;55.328;86.106;2024-01-06T04:04:24;7.82;;;2.78;;
78799;SDS011;68148;55.328;86.106;2024-01-06T04:06:50;7.20;;;3.05;;
78799;SDS011;68148;55.328;86.106;2024-01-06T04:09:17;12.02;;;3.83;;
78799;SDS011;68148;55.328;86.106;2024-01-06T04:11:43;14.30;;;3.60;;
78799;SDS011;68148;55.328;86.106;2024-01-06T04:14:09;11.95;;;3.50;;
78799;SDS011;68148;55.328;86.106;2024-01-06T04:16:35;12.07;;;3.60;;
78799;SDS011;68148;55.328;86.106;2024-01-06T04:19:01;9.80;;;4.13;;
78799;SDS011;68148;55.328;86.106;2024-01-06T04:21:27;11.18;;;4.18;;
78799;SDS011;68148;55.328;86.106;2024-01-06T04:23:52;17.88;;;6.05;;
78799;SDS011;68148;55.328;86.106;2024-01-06T04:26:18;16.02;;;5.20;;
78799;SDS011;68148;55.328;86.106;2024-01-06T04:28:44;18.25;;;5.32;;
78799;SDS011;68148;55.328;86.106;2024-01-06T04:31:10;13.88;;;5.03;;
78799;SDS011;68148;55.328;86.106;2024-01-06T04:33:36;11.38;;;3.17;;
78799;SDS011;68148;55.328;86.106;2024-01-06T04:36:01;12.13;;;3.65;;
78799;SDS011;68148;55.328;86.106;2024-01-06T04:38:27;8.70;;;3.35;;
78799;SDS011;68148;55.328;86.106;2024-01-06T04:40:53;9.80;;;3.63;;
78799;SDS011;68148;55.328;86.106;2024-01-06T04:43:19;13.05;;;3.67;;
78799;SDS011;68148;55.328;86.106;2024-01-06T04:45:45;5.78;;;2.50;;
78799;SDS011;68148;55.328;86.106;2024-01-06T04:48:11;8.95;;;4.30;;
78799;SDS011;68148;55.328;86.106;2024-01-06T04:50:36;6.82;;;3.17;;
78799;SDS011;68148;55.328;86.106;2024-01-06T04:53:03;9.80;;;3.90;;
78799;SDS011;68148;55.328;86.106;2024-01-06T04:55:29;12.98;;;4.43;;
78799;SDS011;68148;55.328;86.106;2024-01-06T04:57:54;8.75;;;2.90;;
78799;SDS011;68148;55.328;86.106;2024-01-06T05:00:20;12.73;;;4.82;;
78799;SDS011;68148;55.328;86.106;2024-01-06T05:02:46;12.10;;;4.78;;
78799;SDS011;68148;55.328;86.106;2024-01-06T05:05:16;9.77;;;4.40;;
78799;SDS011;68148;55.328;86.106;2024-01-06T05:07:42;5.93;;;3.05;;
78799;SDS011;68148;55.328;86.106;2024-01-06T05:10:07;10.63;;;5.00;;
78799;SDS011;68148;55.328;86.106;2024-01-06T05:12:33;16.65;;;4.93;;
78799;SDS011;68148;55.328;86.106;2024-01-06T05:14:59;8.90;;;5.13;;
78799;SDS011;68148;55.328;86.106;2024-01-06T05:17:25;11.68;;;4.53;;
78799;SDS011;68148;55.328;86.106;2024-01-06T05:19:51;11.38;;;4.68;;
78799;SDS011;68148;55.328;86.106;2024-01-06T05:22:16;16.17;;;4.95;;
78799;SDS011;68148;55.328;86.106;2024-01-06T05:24:43;11.07;;;4.10;;
78799;SDS011;68148;55.328;86.106;2024-01-06T05:27:08;13.18;;;4.47;;
78799;SDS011;68148;55.328;86.106;2024-01-06T05:29:34;13.50;;;4.63;;
78799;SDS011;68148;55.328;86.106;2024-01-06T05:32:00;9.52;;;3.90;;
78799;SDS011;68148;55.328;86.106;2024-01-06T05:34:26;14.75;;;5.40;;
78799;SDS011;68148;55.328;86.106;2024-01-06T05:36:51;12.98;;;4.95;;
78799;SDS011;68148;55.328;86.106;2024-01-06T05:39:17;14.32;;;5.57;;
78799;SDS011;68148;55.328;86.106;2024-01-06T05:41:43;15.15;;;5.55;;
78799;SDS011;68148;55.328;86.106;2024-01-06T05:44:09;12.60;;;5.13;;
78799;SDS011;68148;55.328;86.106;2024-01-06T05:46:34;12.00;;;4.70;;
78799;SDS011;68148;55.328;86.106;2024-01-06T05:49:00;17.65;;;6.22;;
78799;SDS011;68148;55.328;86.106;2024-01-06T05:51:26;13.40;;;5.32;;
78799;SDS011;68148;55.328;86.106;2024-01-06T05:53:51;15.10;;;5.03;;
78799;SDS011;68148;55.328;86.106;2024-01-06T05:56:24;14.90;;;5.75;;
78799;SDS011;68148;55.328;86.106;2024-01-06T05:58:59;15.48;;;5.05;;
78799;SDS011;68148;55.328;86.106;2024-01-06T06:01:25;12.50;;;5.03;;
78799;SDS011;68148;55.328;86.106;2024-01-06T06:03:51;13.85;;;5.47;;
78799;SDS011;68148;55.328;86.106;2024-01-06T06:06:16;10.68;;;5.40;;
78799;SDS011;68148;55.328;86.106;2024-01-06T06:08:42;17.55;;;5.80;;
78799;SDS011;68148;55.328;86.106;2024-01-06T06:11:09;8.82;;;3.90;;
78799;SDS011;68148;55.328;86.106;2024-01-06T06:13:34;11.57;;;4.00;;
78799;SDS011;68148;55.328;86.106;2024-01-06T06:16:12;12.95;;;5.30;;
78799;SDS011;68148;55.328;86.106;2024-01-06T06:18:39;12.25;;;4.57;;
78799;SDS011;68148;55.328;86.106;2024-01-06T06:21:05;12.55;;;5.18;;
78799;SDS011;68148;55.328;86.106;2024-01-06T06:23:31;18.15;;;5.60;;
78799;SDS011;68148;55.328;86.106;2024-01-06T06:25:57;15.27;;;5.63;;
78799;SDS011;68148;55.328;86.106;2024-01-06T06:28:23;18.45;;;7.80;;
78799;SDS011;68148;55.328;86.106;2024-01-06T06:30:49;6.15;;;2.92;;
78799;SDS011;68148;55.328;86.106;2024-01-06T06:33:15;9.43;;;5.20;;
78799;SDS011;68148;55.328;86.106;2024-01-06T06:35:40;13.93;;;4.43;;
78799;SDS011;68148;55.328;86.106;2024-01-06T06:38:06;9.43;;;4.70;;
78799;SDS011;68148;55.328;86.106;2024-01-06T06:40:40;12.80;;;5.65;;
78799;SDS011;68148;55.328;86.106;2024-01-06T06:43:06;10.93;;;6.13;;
78799;SDS011;68148;55.328;86.106;2024-01-06T06:45:32;13.02;;;5.93;;
78799;SDS011;68148;55.328;86.106;2024-01-06T06:47:58;16.83;;;6.28;;
78799;SDS011;68148;55.328;86.106;2024-01-06T06:50:24;13.18;;;5.80;;
78799;SDS011;68148;55.328;86.106;2024-01-06T06:52:58;12.13;;;5.63;;
78799;SDS011;68148;55.328;86.106;2024-01-06T06:55:27;15.50;;;6.50;;
78799;SDS011;68148;55.328;86.106;2024-01-06T06:57:53;12.15;;;5.03;;
78799;SDS011;68148;55.328;86.106;2024-01-06T07:00:19;13.52;;;5.72;;
78799;SDS011;68148;55.328;86.106;2024-01-06T07:02:45;8.80;;;3.55;;
78799;SDS011;68148;55.328;86.106;2024-01-06T07:05:11;4.28;;;2.28;;
78799;SDS011;68148;55.328;86.106;2024-01-06T07:07:40;8.73;;;3.08;;
78799;SDS011;68148;55.328;86.106;2024-01-06T07:10:06;5.78;;;2.55;;
78799;SDS011;68148;55.328;86.106;2024-01-06T07:12:33;7.30;;;2.47;;
78799;SDS011;68148;55.328;86.106;2024-01-06T07:14:59;7.10;;;2.40;;
78799;SDS011;68148;55.328;86.106;2024-01-06T07:17:25;6.75;;;1.77;;
78799;SDS011;68148;55.328;86.106;2024-01-06T07:19:51;5.43;;;2.13;;
78799;SDS011;68148;55.328;86.106;2024-01-06T07:22:17;8.85;;;3.08;;
78799;SDS011;68148;55.328;86.106;2024-01-06T07:24:42;5.30;;;2.65;;
78799;SDS011;68148;55.328;86.106;2024-01-06T07:27:16;5.30;;;2.45;;
78799;SDS011;68148;55.328;86.106;2024-01-06T07:29:42;3.72;;;2.33;;
78799;SDS011;68148;55.328;86.106;2024-01-06T07:32:08;4.40;;;1.50;;
78799;SDS011;68148;55.328;86.106;2024-01-06T07:34:34;2.38;;;1.17;;
78799;SDS011;68148;55.328;86.106;2024-01-06T07:37:00;4.18;;;1.88;;
78799;SDS011;68148;55.328;86.106;2024-01-06T07:39:26;5.25;;;1.90;;
78799;SDS011;68148;55.328;86.106;2024-01-06T07:41:51;6.03;;;1.67;;
78799;SDS011;68148;55.328;86.106;2024-01-06T07:44:20;1.48;;;0.98;;
78799;SDS011;68148;55.328;86.106;2024-01-06T07:46:46;4.15;;;1.42;;
78799;SDS011;68148;55.328;86.106;2024-01-06T07:49:14;3.17;;;0.93;;
78799;SDS011;68148;55.328;86.106;2024-01-06T07:51:40;9.95;;;2.72;;
78799;SDS011;68148;55.328;86.106;2024-01-06T07:54:06;2.63;;;2.17;;
78799;SDS011;68148;55.328;86.106;2024-01-06T07:56:32;2.58;;;1.58;;
78799;SDS011;68148;55.328;86.106;2024-01-06T07:58:58;2.97;;;1.05;;
78799;SDS011;68148;55.328;86.106;2024-01-06T08:01:27;1.75;;;0.95;;
78799;SDS011;68148;55.328;86.106;2024-01-06T08:03:52;5.60;;;1.65;;
78799;SDS011;68148;55.328;86.106;2024-01-06T08:06:18;3.97;;;1.70;;
78799;SDS011;68148;55.328;86.106;2024-01-06T08:08:44;4.55;;;1.25;;
78799;SDS011;68148;55.328;86.106;2024-01-06T08:11:10;5.10;;;2.00;;
78799;SDS011;68148;55.328;86.106;2024-01-06T08:13:36;4.07;;;1.27;;
78799;SDS011;68148;55.328;86.106;2024-01-06T08:16:05;2.92;;;0.90;;
78799;SDS011;68148;55.328;86.106;2024-01-06T08:18:31;3.90;;;1.50;;
78799;SDS011;68148;55.328;86.106;2024-01-06T08:20:57;4.38;;;1.45;;
78799;SDS011;68148;55.328;86.106;2024-01-06T08:23:25;2.25;;;1.08;;
78799;SDS011;68148;55.328;86.106;2024-01-06T08:25:51;27.63;;;3.38;;
78799;SDS011;68148;55.328;86.106;2024-01-06T08:28:17;4.03;;;1.70;;
78799;SDS011;68148;55.328;86.106;2024-01-06T08:30:44;3.33;;;1.63;;
78799;SDS011;68148;55.328;86.106;2024-01-06T08:33:10;1.45;;;1.05;;
78799;SDS011;68148;55.328;86.106;2024-01-06T08:35:40;1.80;;;0.93;;
78799;SDS011;68148;55.328;86.106;2024-01-06T08:38:06;4.25;;;1.75;;
78799;SDS011;68148;55.328;86.106;2024-01-06T08:40:33;4.25;;;1.00;;
78799;SDS011;68148;55.328;86.106;2024-01-06T08:43:00;12.85;;;3.20;;
78799;SDS011;68148;55.328;86.106;2024-01-06T08:45:26;9.90;;;1.35;;
78799;SDS011;68148;55.328;86.106;2024-01-06T08:47:53;1.20;;;0.77;;
78799;SDS011;68148;55.328;86.106;2024-01-06T08:50:19;2.63;;;1.23;;
78799;SDS011;68148;55.328;86.106;2024-01-06T08:52:44;3.00;;;2.05;;
78799;SDS011;68148;55.328;86.106;2024-01-06T08:55:10;2.22;;;1.60;;
78799;SDS011;68148;55.328;86.106;2024-01-06T08:57:36;5.45;;;3.10;;
78799;SDS011;68148;55.328;86.106;2024-01-06T09:00:03;4.75;;;1.88;;
78799;SDS011;68148;55.328;86.106;2024-01-06T09:02:30;3.53;;;1.45;;
78799;SDS011;68148;55.328;86.106;2024-01-06T09:04:56;4.18;;;1.23;;
78799;SDS011;68148;55.328;86.106;2024-01-06T09:07:22;1.98;;;0.90;;
78799;SDS011;68148;55.328;86.106;2024-01-06T09:09:48;2.28;;;1.30;;
78799;SDS011;68148;55.328;86.106;2024-01-06T09:12:14;2.33;;;1.20;;
78799;SDS011;68148;55.328;86.106;2024-01-06T09:14:39;2.45;;;0.75;;
78799;SDS011;68148;55.328;86.106;2024-01-06T09:17:06;6.15;;;1.90;;
78799;SDS011;68148;55.328;86.106;2024-01-06T09:19:32;7.03;;;2.55;;
78799;SDS011;68148;55.328;86.106;2024-01-06T09:21:58;4.50;;;1.75;;
78799;SDS011;68148;55.328;86.106;2024-01-06T09:24:24;9.05;;;3.22;;
78799;SDS011;68148;55.328;86.106;2024-01-06T09:26:50;9.63;;;3.83;;
78799;SDS011;68148;55.328;86.106;2024-01-06T09:29:16;9.48;;;3.65;;
78799;SDS011;68148;55.328;86.106;2024-01-06T09:31:42;3.78;;;1.58;;
78799;SDS011;68148;55.328;86.106;2024-01-06T09:34:09;7.75;;;3.83;;
78799;SDS011;68148;55.328;86.106;2024-01-06T09:36:35;8.10;;;3.22;;
78799;SDS011;68148;55.328;86.106;2024-01-06T09:39:10;3.65;;;1.90;;
78799;SDS011;68148;55.328;86.106;2024-01-06T09:41:36;5.40;;;2.60;;
78799;SDS011;68148;55.328;86.106;2024-01-06T09:44:02;9.25;;;2.10;;
78799;SDS011;68148;55.328;86.106;2024-01-06T09:46:29;5.07;;;2.03;;
78799;SDS011;68148;55.328;86.106;2024-01-06T09:48:55;8.10;;;2.13;;
78799;SDS011;68148;55.328;86.106;2024-01-06T09:51:21;4.40;;;2.25;;
78799;SDS011;68148;55.328;86.106;2024-01-06T09:53:49;6.65;;;2.60;;
78799;SDS011;68148;55.328;86.106;2024-01-06T09:56:29;7.03;;;3.53;;
78799;SDS011;68148;55.328;86.106;2024-01-06T09:58:55;3.65;;;1.55;;
78799;SDS011;68148;55.328;86.106;2024-01-06T10:01:22;4.03;;;2.05;;
78799;SDS011;68148;55.328;86.106;2024-01-06T10:03:48;8.10;;;3.22;;
78799;SDS011;68148;55.328;86.106;2024-01-06T10:06:14;10.13;;;3.30;;
78799;SDS011;68148;55.328;86.106;2024-01-06T10:08:58;9.88;;;3.80;;
78799;SDS011;68148;55.328;86.106;2024-01-06T10:11:24;13.63;;;4.55;;
78799;SDS011;68148;55.328;86.106;2024-01-06T10:13:50;12.52;;;5.22;;
78799;SDS011;68148;55.328;86.106;2024-01-06T10:16:16;13.57;;;5.13;;
78799;SDS011;68148;55.328;86.106;2024-01-06T10:18:43;22.48;;;5.03;;
78799;SDS011;68148;55.328;86.106;2024-01-06T10:21:12;10.98;;;5.00;;
78799;SDS011;68148;55.328;86.106;2024-01-06T10:23:38;7.95;;;3.25;;
78799;SDS011;68148;55.328;86.106;2024-01-06T10:26:04;9.82;;;3.42;;
78799;SDS011;68148;55.328;86.106;2024-01-06T10:28:30;8.13;;;3.75;;
78799;SDS011;68148;55.328;86.106;2024-01-06T10:30:55;11.38;;;4.03;;
78799;SDS011;68148;55.328;86.106;2024-01-06T10:33:23;14.55;;;4.88;;
78799;SDS011;68148;55.328;86.106;2024-01-06T10:35:56;7.10;;;3.28;;
78799;SDS011;68148;55.328;86.106;2024-01-06T10:38:22;13.98;;;5.13;;
78799;SDS011;68148;55.328;86.106;2024-01-06T10:43:27;27.42;;;8.63;;
78799;SDS011;68148;55.328;86.106;2024-01-06T10:46:00;30.17;;;7.57;;
78799;SDS011;68148;55.328;86.106;2024-01-06T10:48:27;22.42;;;7.93;;
78799;SDS011;68148;55.328;86.106;2024-01-06T10:50:57;22.70;;;6.68;;
78799;SDS011;68148;55.328;86.106;2024-01-06T10:53:24;10.73;;;3.55;;
78799;SDS011;68148;55.328;86.106;2024-01-06T10:55:52;26.75;;;6.15;;
78799;SDS011;68148;55.328;86.106;2024-01-06T10:58:18;24.35;;;6.82;;
78799;SDS011;68148;55.328;86.106;2024-01-06T11:00:45;19.25;;;6.15;;
78799;SDS011;68148;55.328;86.106;2024-01-06T11:03:12;20.63;;;5.22;;
78799;SDS011;68148;55.328;86.106;2024-01-06T11:05:42;15.70;;;5.10;;
78799;SDS011;68148;55.328;86.106;2024-01-06T11:08:09;9.43;;;3.13;;
78799;SDS011;68148;55.328;86.106;2024-01-06T11:10:36;13.88;;;4.03;;
78799;SDS011;68148;55.328;86.106;2024-01-06T11:13:14;7.25;;;3.33;;
78799;SDS011;68148;55.328;86.106;2024-01-06T11:18:07;10.63;;;3.88;;
78799;SDS011;68148;55.328;86.106;2024-01-06T11:20:33;15.50;;;4.43;;
78799;SDS011;68148;55.328;86.106;2024-01-06T11:23:17;7.22;;;3.10;;
78799;SDS011;68148;55.328;86.106;2024-01-06T11:25:44;10.77;;;3.50;;
78799;SDS011;68148;55.328;86.106;2024-01-06T11:28:10;16.70;;;4.43;;
78799;SDS011;68148;55.328;86.106;2024-01-06T11:30:42;9.27;;;3.65;;
78799;SDS011;68148;55.328;86.106;2024-01-06T11:33:08;12.82;;;4.60;;
78799;SDS011;68148;55.328;86.106;2024-01-06T11:35:34;18.42;;;5.20;;
78799;SDS011;68148;55.328;86.106;2024-01-06T11:38:02;8.60;;;3.63;;
78799;SDS011;68148;55.328;86.106;2024-01-06T11:40:34;13.20;;;4.25;;
78799;SDS011;68148;55.328;86.106;2024-01-06T11:43:11;9.30;;;3.22;;
78799;SDS011;68148;55.328;86.106;2024-01-06T11:45:38;9.98;;;3.40;;
78799;SDS011;68148;55.328;86.106;2024-01-06T11:48:06;13.75;;;3.75;;
78799;SDS011;68148;55.328;86.106;2024-01-06T11:50:35;9.85;;;3.15;;
78799;SDS011;68148;55.328;86.106;2024-01-06T11:53:02;12.57;;;3.42;;
78799;SDS011;68148;55.328;86.106;2024-01-06T11:55:29;7.97;;;2.40;;
78799;SDS011;68148;55.328;86.106;2024-01-06T11:57:55;10.30;;;3.40;;
78799;SDS011;68148;55.328;86.106;2024-01-06T12:00:21;15.23;;;2.85;;
78799;SDS011;68148;55.328;86.106;2024-01-06T12:02:48;12.13;;;4.13;;
78799;SDS011;68148;55.328;86.106;2024-01-06T12:05:15;13.63;;;5.25;;
78799;SDS011;68148;55.328;86.106;2024-01-06T12:07:42;9.90;;;4.57;;
78799;SDS011;68148;55.328;86.106;2024-01-06T12:10:09;8.07;;;3.55;;
78799;SDS011;68148;55.328;86.106;2024-01-06T12:12:35;5.45;;;2.85;;
78799;SDS011;68148;55.328;86.106;2024-01-06T12:15:02;13.77;;;3.97;;
78799;SDS011;68148;55.328;86.106;2024-01-06T12:17:29;9.88;;;4.20;;
78799;SDS011;68148;55.328;86.106;2024-01-06T12:19:57;7.60;;;3.72;;
78799;SDS011;68148;55.328;86.106;2024-01-06T12:22:23;12.23;;;4.72;;
78799;SDS011;68148;55.328;86.106;2024-01-06T12:24:49;3.72;;;1.90;;
78799;SDS011;68148;55.328;86.106;2024-01-06T12:27:16;6.93;;;1.95;;
78799;SDS011;68148;55.328;86.106;2024-01-06T12:29:43;6.93;;;2.85;;
78799;SDS011;68148;55.328;86.106;2024-01-06T12:32:09;11.13;;;3.78;;
78799;SDS011;68148;55.328;86.106;2024-01-06T12:34:36;6.57;;;2.47;;
78799;SDS011;68148;55.328;86.106;2024-01-06T12:37:02;5.53;;;2.15;;
78799;SDS011;68148;55.328;86.106;2024-01-06T12:39:29;5.45;;;2.63;;
78799;SDS011;68148;55.328;86.106;2024-01-06T12:41:55;7.30;;;2.38;;
78799;SDS011;68148;55.328;86.106;2024-01-06T12:44:22;3.60;;;2.08;;
78799;SDS011;68148;55.328;86.106;2024-01-06T12:46:48;3.05;;;1.83;;
78799;SDS011;68148;55.328;86.106;2024-01-06T12:49:14;2.50;;;1.63;;
78799;SDS011;68148;55.328;86.106;2024-01-06T12:51:41;6.03;;;2.45;;
78799;SDS011;68148;55.328;86.106;2024-01-06T12:54:07;6.78;;;2.50;;
78799;SDS011;68148;55.328;86.106;2024-01-06T12:56:33;7.70;;;3.20;;
78799;SDS011;68148;55.328;86.106;2024-01-06T12:58:58;10.02;;;4.03;;
78799;SDS011;68148;55.328;86.106;2024-01-06T13:01:24;16.13;;;4.15;;
78799;SDS011;68148;55.328;86.106;2024-01-06T13:03:50;6.38;;;2.83;;
78799;SDS011;68148;55.328;86.106;2024-01-06T13:06:16;10.65;;;3.35;;
78799;SDS011;68148;55.328;86.106;2024-01-06T13:08:42;11.30;;;3.80;;
78799;SDS011;68148;55.328;86.106;2024-01-06T13:11:08;11.65;;;4.70;;
78799;SDS011;68148;55.328;86.106;2024-01-06T13:13:35;15.70;;;4.80;;
78799;SDS011;68148;55.328;86.106;2024-01-06T13:16:00;14.85;;;5.43;;
78799;SDS011;68148;55.328;86.106;2024-01-06T13:18:27;18.42;;;6.60;;
78799;SDS011;68148;55.328;86.106;2024-01-06T13:20:52;11.85;;;4.88;;
78799;SDS011;68148;55.328;86.106;2024-01-06T13:23:18;8.60;;;4.15;;
78799;SDS011;68148;55.328;86.106;2024-01-06T13:25:44;15.02;;;5.75;;
78799;SDS011;68148;55.328;86.106;2024-01-06T13:28:10;13.93;;;3.80;;
78799;SDS011;68148;55.328;86.106;2024-01-06T13:30:39;14.50;;;5.90;;
78799;SDS011;68148;55.328;86.106;2024-01-06T13:33:05;13.57;;;4.68;;
78799;SDS011;68148;55.328;86.106;2024-01-06T13:35:31;8.52;;;4.68;;
78799;SDS011;68148;55.328;86.106;2024-01-06T13:37:57;14.70;;;3.78;;
78799;SDS011;68148;55.328;86.106;2024-01-06T13:40:23;11.38;;;4.57;;
78799;SDS011;68148;55.328;86.106;2024-01-06T13:42:49;10.10;;;5.10;;
78799;SDS011;68148;55.328;86.106;2024-01-06T13:45:15;10.85;;;4.45;;
78799;SDS011;68148;55.328;86.106;2024-01-06T13:47:41;9.10;;;4.63;;
78799;SDS011;68148;55.328;86.106;2024-01-06T13:50:08;12.05;;;5.28;;
78799;SDS011;68148;55.328;86.106;2024-01-06T13:52:34;12.93;;;5.03;;
78799;SDS011;68148;55.328;86.106;2024-01-06T13:55:00;3.42;;;2.65;;
78799;SDS011;68148;55.328;86.106;2024-01-06T13:57:26;14.20;;;4.20;;
78799;SDS011;68148;55.328;86.106;2024-01-06T13:59:52;8.50;;;4.82;;
78799;SDS011;68148;55.328;86.106;2024-01-06T14:02:18;12.80;;;4.82;;
78799;SDS011;68148;55.328;86.106;2024-01-06T14:04:43;13.23;;;4.55;;
78799;SDS011;68148;55.328;86.106;2024-01-06T14:07:13;15.00;;;4.15;;
78799;SDS011;68148;55.328;86.106;2024-01-06T14:09:39;15.52;;;5.53;;
78799;SDS011;68148;55.328;86.106;2024-01-06T14:12:05;16.38;;;4.47;;
78799;SDS011;68148;55.328;86.106;2024-01-06T14:14:33;10.02;;;4.05;;
78799;SDS011;68148;55.328;86.106;2024-01-06T14:16:58;9.88;;;3.55;;
78799;SDS011;68148;55.328;86.106;2024-01-06T14:19:24;3.85;;;2.47;;
78799;SDS011;68148;55.328;86.106;2024-01-06T14:21:50;15.65;;;5.35;;
78799;SDS011;68148;55.328;86.106;2024-01-06T14:24:16;13.73;;;4.70;;
78799;SDS011;68148;55.328;86.106;2024-01-06T14:26:42;10.93;;;3.45;;
78799;SDS011;68148;55.328;86.106;2024-01-06T14:29:08;14.95;;;5.07;;